createdAt,value
2023-02-09T00:02:17.708Z,37.08
2023-02-09T00:05:21.617Z,33.05
2023-02-09T00:08:24.911Z,39.85
2023-02-09T00:11:43.423Z,40.08
2023-02-09T00:14:46.845Z,41.33
2023-02-09T00:17:51.723Z,37.75
2023-02-09T00:20:58.997Z,32.67
2023-02-09T00:24:02.574Z,39.53
2023-02-09T00:27:05.897Z,43.72
2023-02-09T00:30:09.951Z,35.33
2023-02-09T00:33:14.803Z,39.97
2023-02-09T00:36:19.435Z,36.47
2023-02-09T00:39:23.804Z,36.35
2023-02-09T00:42:27.232Z,38.57
2023-02-09T00:45:30.798Z,40.63
2023-02-09T00:48:35.730Z,38.78
2023-02-09T00:51:39.159Z,44.67
2023-02-09T00:54:42.537Z,42.33
2023-02-09T00:57:46.106Z,44.97
2023-02-09T01:00:50.549Z,39.15
2023-02-09T01:03:55.436Z,40.10
2023-02-09T01:06:59.070Z,36.63
2023-02-09T01:10:03.002Z,46.92
2023-02-09T01:13:06.632Z,38.88
2023-02-09T01:16:10.642Z,43.83
2023-02-09T01:19:17.971Z,35.42
2023-02-09T01:22:21.422Z,37.95
2023-02-09T01:25:25.265Z,41.28
2023-02-09T01:28:28.652Z,41.22
2023-02-09T01:31:33.208Z,36.22
2023-02-09T01:34:39.441Z,41.78
2023-02-09T01:37:43.034Z,33.05
2023-02-09T01:40:48.669Z,35.63
2023-02-09T01:44:00.545Z,42.47
2023-02-09T01:47:14.336Z,40.88
2023-02-09T01:50:19.637Z,37.92
2023-02-09T01:53:23.530Z,38.67
2023-02-09T01:56:32.751Z,34.67
2023-02-09T01:59:40.737Z,36.97
2023-02-09T02:02:54.619Z,41.72
2023-02-09T02:06:05.829Z,32.45
2023-02-09T02:09:11.512Z,42.93
2023-02-09T02:12:16.258Z,37.27
2023-02-09T02:15:19.790Z,42.10
2023-02-09T02:18:31.605Z,38.27
2023-02-09T02:21:50.056Z,41.03
2023-02-09T02:25:21.761Z,37.97
2023-02-09T02:28:36.949Z,32.80
2023-02-09T02:31:57.952Z,37.50
2023-02-09T02:35:03.647Z,42.67
2023-02-09T02:38:13.817Z,33.87
2023-02-09T02:41:20.572Z,37.07
2023-02-09T02:44:31.166Z,35.90
2023-02-09T02:47:38.628Z,39.93
2023-02-09T02:50:46.548Z,38.77
2023-02-09T02:53:54.404Z,45.87
2023-02-09T02:57:01.871Z,41.17
2023-02-09T03:00:08.595Z,38.55
2023-02-09T03:03:15.898Z,37.00
2023-02-09T03:06:21.464Z,44.30
2023-02-09T03:09:27.783Z,37.25
2023-02-09T03:12:38.117Z,35.85
2023-02-09T03:15:49.534Z,32.43
2023-02-09T03:19:04.722Z,29.97
2023-02-09T03:22:09.208Z,34.50
2023-02-09T03:25:17.652Z,41.25
2023-02-09T03:28:25.483Z,40.87
2023-02-09T03:31:36.876Z,31.88
2023-02-09T03:34:44.128Z,36.27
2023-02-09T03:37:50.618Z,36.13
2023-02-09T03:40:56.804Z,34.60
2023-02-09T03:44:20.993Z,37.83
2023-02-09T03:47:24.690Z,30.37
2023-02-09T03:50:32.184Z,35.95
2023-02-09T03:53:37.401Z,34.25
2023-02-09T03:56:43.138Z,30.43
2023-02-09T03:59:49.385Z,33.97
2023-02-09T04:02:53.125Z,34.70
2023-02-09T04:06:00.649Z,29.43
2023-02-09T04:09:05.090Z,29.40
2023-02-09T04:12:09.218Z,35.70
2023-02-09T04:15:12.762Z,32.00
2023-02-09T04:18:16.299Z,32.33
2023-02-09T04:21:22.773Z,34.70
2023-02-09T04:24:28.910Z,31.00
2023-02-09T04:27:32.318Z,36.43
2023-02-09T04:30:35.995Z,31.77
2023-02-09T04:33:39.460Z,33.07
2023-02-09T04:36:45.313Z,27.27
2023-02-09T04:39:48.679Z,29.53
2023-02-09T04:42:52.077Z,38.63
2023-02-09T04:45:55.603Z,35.20
2023-02-09T04:48:59.116Z,31.60
2023-02-09T04:52:03.841Z,32.00
2023-02-09T04:55:07.554Z,25.57
2023-02-09T04:58:29.081Z,29.55
2023-02-09T05:01:32.674Z,30.97
2023-02-09T05:04:36.040Z,29.20
2023-02-09T05:07:40.805Z,32.13
2023-02-09T05:10:44.390Z,29.03
2023-02-09T05:13:47.988Z,31.60
2023-02-09T05:16:51.397Z,24.27
2023-02-09T05:19:54.792Z,29.80
2023-02-09T05:22:59.509Z,27.23
2023-02-09T05:26:02.982Z,38.40
2023-02-09T05:29:06.434Z,29.47
2023-02-09T05:32:09.956Z,24.42
2023-02-09T05:35:13.456Z,26.95
2023-02-09T05:38:18.226Z,26.85
2023-02-09T05:41:35.457Z,28.43
2023-02-09T05:44:38.949Z,26.88
2023-02-09T05:47:42.460Z,21.53
2023-02-09T05:50:46.171Z,22.55
2023-02-09T05:53:56.221Z,22.15
2023-02-09T05:57:02.838Z,27.48
2023-02-09T06:00:06.944Z,26.02
2023-02-09T06:03:15.305Z,23.58
2023-02-09T06:06:18.707Z,24.80
2023-02-09T06:09:23.445Z,25.33
2023-02-09T06:12:27.040Z,21.70
2023-02-09T06:15:30.439Z,25.87
2023-02-09T06:18:33.828Z,25.42
2023-02-09T06:21:37.147Z,24.60
2023-02-09T06:24:41.895Z,28.67
2023-02-09T06:27:45.388Z,27.00
2023-02-09T06:30:51.541Z,26.90
2023-02-09T06:33:55.114Z,27.37
2023-02-09T06:36:58.815Z,25.55
2023-02-09T06:40:03.700Z,21.05
2023-02-09T06:43:07.312Z,24.70
2023-02-09T06:46:11.470Z,25.13
2023-02-09T06:49:14.978Z,23.90
2023-02-09T06:52:18.683Z,17.63
2023-02-09T06:55:23.699Z,24.25
2023-02-09T06:58:27.127Z,26.63
2023-02-09T07:01:30.629Z,21.95
2023-02-09T07:04:34.033Z,22.75
2023-02-09T07:07:38.143Z,18.83
2023-02-09T07:10:43.464Z,23.47
2023-02-09T07:13:47.565Z,19.83
2023-02-09T07:16:51.111Z,27.00
2023-02-09T07:19:54.704Z,20.75
2023-02-09T07:22:58.173Z,20.25
2023-02-09T07:26:06.206Z,22.50
2023-02-09T07:29:11.450Z,21.52
2023-02-09T07:32:16.240Z,24.63
2023-02-09T07:35:19.881Z,18.17
2023-02-09T07:38:23.374Z,22.50
2023-02-09T07:41:28.630Z,24.85
2023-02-09T07:48:16.801Z,27.50
2023-02-09T07:51:33.443Z,19.73
2023-02-09T07:54:38.039Z,24.65
2023-02-09T07:57:51.862Z,18.65
2023-02-09T08:04:49.649Z,19.10
2023-02-09T08:07:53.520Z,18.15
2023-02-09T08:10:58.996Z,20.67
2023-02-09T08:14:14.220Z,16.95
2023-02-09T08:17:24.278Z,19.02
2023-02-09T08:20:29.556Z,24.20
2023-02-09T08:23:34.839Z,14.05
2023-02-09T08:26:38.527Z,14.40
2023-02-09T08:29:43.532Z,15.90
2023-02-09T08:32:47.208Z,25.02
2023-02-09T08:35:53.457Z,18.83
2023-02-09T08:38:59.489Z,15.48
2023-02-09T08:42:03.415Z,19.73
2023-02-09T08:45:09.186Z,18.08
2023-02-09T08:48:16.703Z,17.83
2023-02-09T08:51:22.880Z,16.10
2023-02-09T08:54:26.815Z,16.35
2023-02-09T08:57:43.175Z,20.70
2023-02-09T09:00:49.309Z,22.17
2023-02-09T09:03:53.141Z,28.83
2023-02-09T09:06:58.573Z,34.75
2023-02-09T09:10:05.334Z,31.83
2023-02-09T09:13:09.939Z,27.50
2023-02-09T09:16:18.541Z,25.73
2023-02-09T09:19:22.070Z,23.23
2023-02-09T09:22:25.788Z,18.92
2023-02-09T09:25:29.431Z,15.07
2023-02-09T09:28:33.143Z,15.25
2023-02-09T09:31:39.332Z,14.73
2023-02-09T09:34:43.130Z,21.65
2023-02-09T09:37:46.670Z,19.40
2023-02-09T09:40:57.573Z,12.68
2023-02-09T09:44:02.288Z,16.63
2023-02-09T09:47:10.282Z,16.75
2023-02-09T09:50:19.132Z,14.35
2023-02-09T09:53:28.760Z,13.45
2023-02-09T09:56:33.358Z,17.88
2023-02-09T09:59:41.529Z,17.17
2023-02-09T10:02:46.806Z,22.88
2023-02-09T10:05:51.333Z,16.65
2023-02-09T10:08:57.148Z,18.10
2023-02-09T10:12:10.161Z,13.85
2023-02-09T10:15:28.211Z,16.95
2023-02-09T10:18:38.231Z,13.77
2023-02-09T10:21:42.001Z,13.05
2023-02-09T10:24:45.612Z,15.30
2023-02-09T10:27:49.536Z,14.90
2023-02-09T10:34:25.988Z,12.80
2023-02-09T10:37:36.012Z,15.07
2023-02-09T10:40:42.345Z,17.08
2023-02-09T10:43:56.692Z,17.50
2023-02-09T10:47:11.313Z,22.23
2023-02-09T10:50:19.864Z,12.20
2023-02-09T10:53:31.422Z,12.98
2023-02-09T10:56:45.824Z,12.85
2023-02-09T11:00:06.662Z,19.58
2023-02-09T11:03:20.520Z,13.07
2023-02-09T11:06:28.725Z,11.40
2023-02-09T11:09:35.279Z,11.77
2023-02-09T11:12:39.347Z,15.20
2023-02-09T11:15:46.333Z,17.75
2023-02-09T11:18:54.352Z,14.20
2023-02-09T11:22:10.325Z,13.20
2023-02-09T11:25:26.161Z,15.00
2023-02-09T11:28:35.645Z,14.25
2023-02-09T11:31:50.419Z,14.20
2023-02-09T11:35:03.050Z,11.52
2023-02-09T11:38:13.954Z,15.65
2023-02-09T11:41:43.108Z,13.68
2023-02-09T11:44:58.022Z,14.40
2023-02-09T11:49:14.454Z,13.07
2023-02-09T11:52:39.690Z,21.00
2023-02-09T11:56:42.219Z,12.90
2023-02-09T12:08:58.537Z,13.27
2023-02-09T12:15:43.244Z,12.30
2023-02-09T12:18:48.768Z,16.13
2023-02-09T12:21:52.069Z,13.43
2023-02-09T12:25:07.187Z,12.68
2023-02-09T12:32:18.410Z,15.30
2023-02-09T12:35:38.823Z,13.40
2023-02-09T12:38:51.593Z,14.98
2023-02-09T12:47:16.261Z,10.52
2023-02-09T13:03:45.521Z,12.38
2023-02-09T13:06:51.281Z,9.32
2023-02-09T13:09:57.157Z,12.15
2023-02-09T13:13:07.019Z,11.18
2023-02-09T13:16:25.271Z,13.60
2023-02-09T13:19:47.946Z,10.27
2023-02-09T13:23:17.816Z,14.90
2023-02-09T13:26:49.622Z,17.83
2023-02-09T13:29:54.315Z,14.52
2023-02-09T13:33:03.097Z,12.05
2023-02-09T13:36:50.140Z,14.65
2023-02-09T13:40:00.670Z,11.82
2023-02-09T13:43:51.076Z,15.05
2023-02-09T13:51:19.661Z,12.82
2023-02-09T13:54:22.980Z,13.15
2023-02-09T13:57:41.193Z,11.65
2023-02-09T14:00:46.967Z,12.48
2023-02-09T14:03:58.502Z,13.68
2023-02-09T14:07:04.720Z,13.10
2023-02-09T14:10:16.688Z,16.00
2023-02-09T14:13:22.222Z,15.02
2023-02-09T14:16:28.914Z,17.55
2023-02-09T14:19:34.957Z,14.93
2023-02-09T14:22:40.032Z,12.30
2023-02-09T14:26:33.129Z,11.45
2023-02-09T14:29:37.460Z,9.57
2023-02-09T14:32:45.146Z,11.15
2023-02-09T14:35:55.390Z,11.95
2023-02-09T14:39:09.298Z,16.05
2023-02-09T14:42:20.424Z,12.50
2023-02-09T14:45:32.552Z,15.77
2023-02-09T14:49:00.953Z,15.25
2023-02-09T14:52:15.158Z,12.73
2023-02-09T14:55:21.434Z,14.40
2023-02-09T14:58:25.595Z,9.25
2023-02-09T15:01:28.978Z,13.65
2023-02-09T15:04:32.388Z,14.10
2023-02-09T15:07:40.581Z,14.60
2023-02-09T15:10:45.660Z,12.63
2023-02-09T15:13:49.197Z,14.20
2023-02-09T15:16:53.375Z,14.07
2023-02-09T15:19:57.232Z,16.42
2023-02-09T15:23:02.131Z,16.05
2023-02-09T15:26:05.462Z,16.17
2023-02-09T15:29:12.125Z,13.27
2023-02-09T15:32:16.392Z,16.05
2023-02-09T15:35:20.604Z,16.13
2023-02-09T15:38:27.058Z,18.30
2023-02-09T15:41:48.528Z,15.13
2023-02-09T15:45:09.526Z,12.73
2023-02-09T15:48:13.024Z,13.10
2023-02-09T15:51:17.239Z,14.13
2023-02-09T15:54:24.614Z,17.88
2023-02-09T15:57:27.931Z,13.75
2023-02-09T16:00:34.093Z,15.57
2023-02-09T16:03:37.324Z,18.00
2023-02-09T16:06:40.973Z,21.95
2023-02-09T16:09:46.560Z,19.67
2023-02-09T16:12:49.852Z,15.45
2023-02-09T16:15:53.168Z,15.35
2023-02-09T16:19:02.566Z,10.10
2023-02-09T16:22:08.774Z,14.10
2023-02-09T16:25:23.622Z,16.52
2023-02-09T16:28:27.154Z,13.93
2023-02-09T16:31:31.252Z,14.10
2023-02-09T16:34:34.686Z,15.32
2023-02-09T16:37:38.241Z,19.65
2023-02-09T16:40:43.105Z,12.27
2023-02-09T16:43:46.483Z,13.32
2023-02-09T16:46:51.257Z,14.77
2023-02-09T16:49:59.950Z,14.13
2023-02-09T16:53:05.220Z,15.07
2023-02-09T16:56:19.552Z,17.95
2023-02-09T16:59:24.920Z,13.15
2023-02-09T17:02:33.983Z,13.90
2023-02-09T17:05:48.883Z,20.40
2023-02-09T17:08:56.518Z,16.38
2023-02-09T17:12:09.463Z,13.85
2023-02-09T17:15:28.937Z,16.45
2023-02-09T17:24:18.662Z,13.48
2023-02-09T17:37:52.245Z,18.88
2023-02-09T17:40:57.822Z,15.00
2023-02-09T17:44:18.847Z,15.38
2023-02-09T17:47:29.304Z,19.65
2023-02-09T17:51:31.895Z,17.27
2023-02-09T17:58:57.095Z,13.27
2023-02-09T18:02:00.412Z,15.82
2023-02-09T18:05:18.850Z,16.05
2023-02-09T18:08:27.115Z,14.25
2023-02-09T18:12:08.389Z,16.40
2023-02-09T18:15:48.366Z,16.60
2023-02-09T18:18:51.944Z,14.35
2023-02-09T18:21:56.391Z,18.70
2023-02-09T18:25:01.068Z,15.85
2023-02-09T18:28:05.153Z,17.33
2023-02-09T18:31:13.004Z,20.15
2023-02-09T18:34:19.241Z,13.73
2023-02-09T18:37:22.536Z,13.95
2023-02-09T18:40:27.269Z,18.02
2023-02-09T18:44:15.276Z,19.38
2023-02-09T18:47:20.194Z,16.35
2023-02-09T18:54:46.168Z,13.90
2023-02-09T19:02:45.138Z,17.05
2023-02-09T19:05:48.919Z,16.38
2023-02-09T19:08:52.627Z,18.30
2023-02-09T19:11:57.133Z,17.48
2023-02-09T19:15:03.701Z,14.52
2023-02-09T19:18:08.414Z,17.23
2023-02-09T19:21:17.938Z,22.38
2023-02-09T19:24:21.743Z,23.30
2023-02-09T19:27:26.715Z,19.55
2023-02-09T19:30:37.905Z,22.10
2023-02-09T19:33:42.669Z,23.65
2023-02-09T19:36:46.999Z,19.63
2023-02-09T19:40:00.969Z,25.20
2023-02-09T19:43:06.158Z,20.73
2023-02-09T19:46:10.475Z,27.80
2023-02-09T19:49:34.048Z,20.63
2023-02-09T19:52:48.022Z,22.58
2023-02-09T19:56:09.796Z,19.13
2023-02-09T20:06:36.212Z,21.83
2023-02-09T20:13:26.233Z,28.60
2023-02-09T20:20:09.682Z,19.98
2023-02-09T20:23:17.966Z,19.15
2023-02-09T20:26:25.985Z,22.17
2023-02-09T20:29:36.670Z,24.83
2023-02-09T20:32:49.399Z,24.38
2023-02-09T20:35:53.012Z,25.60
2023-02-09T20:39:01.075Z,19.60
2023-02-09T20:42:27.503Z,24.73
2023-02-09T20:45:51.541Z,22.83
2023-02-09T20:48:55.417Z,23.48
2023-02-09T20:52:01.322Z,25.33
2023-02-09T20:55:10.990Z,24.70
2023-02-09T20:58:17.465Z,20.30
2023-02-09T21:01:23.922Z,23.95
2023-02-09T21:04:30.989Z,27.90
2023-02-09T21:07:37.154Z,21.83
2023-02-09T21:10:52.850Z,26.17
2023-02-09T21:13:56.427Z,26.73
2023-02-09T21:17:20.120Z,19.60
2023-02-09T21:20:26.160Z,21.23
2023-02-09T21:23:39.409Z,26.90
2023-02-09T21:26:45.859Z,23.60
2023-02-09T21:29:52.428Z,32.70
2023-02-09T21:32:56.278Z,26.55
2023-02-09T21:36:01.607Z,25.88
2023-02-09T21:39:05.351Z,25.85
2023-02-09T21:42:36.075Z,31.02
2023-02-09T21:45:40.386Z,21.00
2023-02-09T21:48:44.076Z,25.70
2023-02-09T21:51:49.941Z,29.30
2023-02-09T21:55:03.549Z,34.10
2023-02-09T21:58:23.268Z,26.08
2023-02-09T22:01:31.755Z,33.67
2023-02-09T22:04:45.766Z,29.83
2023-02-09T22:08:04.867Z,26.50
2023-02-09T22:11:08.613Z,29.58
2023-02-09T22:14:13.443Z,27.58
2023-02-09T22:17:17.054Z,34.00
2023-02-09T22:20:23.551Z,23.05
2023-02-09T22:23:33.619Z,31.20
2023-02-09T22:26:38.138Z,44.63
2023-02-09T22:29:43.400Z,28.65
2023-02-09T22:32:46.884Z,32.88
2023-02-09T22:35:50.647Z,31.17
2023-02-09T22:38:54.160Z,28.58
2023-02-09T22:41:59.789Z,26.10
2023-02-09T22:45:07.384Z,29.75
2023-02-09T22:48:11.260Z,31.67
2023-02-09T22:51:19.233Z,25.83
2023-02-09T22:54:27.318Z,30.40
2023-02-09T22:57:30.855Z,37.50
2023-02-09T23:00:35.814Z,26.70
2023-02-09T23:03:39.313Z,31.58
2023-02-09T23:06:42.754Z,25.60
2023-02-09T23:09:46.249Z,29.13
2023-02-09T23:12:49.676Z,27.83
2023-02-09T23:15:54.500Z,32.88
2023-02-09T23:18:59.086Z,29.58
2023-02-09T23:22:02.605Z,28.75
2023-02-09T23:25:07.747Z,38.20
2023-02-09T23:28:11.257Z,28.10
2023-02-09T23:31:16.956Z,25.58
2023-02-09T23:34:25.856Z,30.90
2023-02-09T23:37:37.656Z,28.40
2023-02-09T23:40:41.745Z,31.98
2023-02-09T23:43:49.040Z,22.83
2023-02-09T23:46:59.651Z,23.52
2023-02-09T23:50:06.117Z,31.63
2023-02-09T23:53:11.052Z,27.35
2023-02-09T23:56:22.709Z,32.15
2023-02-09T23:59:32.150Z,32.03
